DA-16

DA-16

 

Technische Daten

Typ DA 16  DA 16 SD08
DA 16 SD10
DA 16 M
DA 16 M SD08
DA 16 2M
DA 16 2M SD08
Art.Nr. 40.09.000 40.09.500
40.09.600
40.90.000
40.90.500
40.91.000
40.91.500
Drehwinkel 0-180° 0-180° 0-180° 0-180°
Drehmoment 0.7 Nm 0.7 Nm 0.7 Nm 0.7 Nm
Positionen 2 2 3 4
Betriebsdruck 3-8 bar 3-8 bar 3-8 bar 3-8 bar
Luftanschlüsse (P) M5 M5 M5 M5
Luftverbrauch/180° 0.03 NL 0.03 NL 0.05 NL 0.07 NL
Temperaturbereich -10°/+60°C -10°/+60°C -10°/+60°C -10°/+60°C
Gewicht 0.90 kg 1.2 kg 1.2 kg 1.23 kg
max. Belastung radial 1400 N 1400 N 1400 N 1400 N
max. Belastung axial 800 N 800 N 800 N 800 N
max. Trägheitsmoment (J) 15 Kgcm2

40 Kgcm2
120 Kgcm2

15 Kgcm2
40 Kgcm2

15 Kgcm2
40 Kgcm2

Winkelgenauigkeit (J) <6' <6' <6' <6'

 

Downloadcenter

Katalogblatt

334 KB DA16.pdf 16.05.2006

Betriebsanleitung

421 KB DA16.pdf 16.05.2006

576 KB DA16M.pdf 16.05.2006

378 KB DA16-360.pdf 16.05.2006

587 KB DA16M-360.pdf 16.05.2006

CAD-Daten DWG-DXF

Drehantrieb

72 KB 2000005.zip DA 16 16.05.2006

87 KB 2000006.zip DA 16 SD08 16.05.2006

93 KB 2000007.zip DA 16 SD10 16.05.2006

85 KB 2000008.zip DA 16 M 16.05.2006

91 KB 2000009.zip DA 16 M SD08 16.05.2006

91 KB 2000010.zip DA 16 2M 16.05.2006

93 KB 2000011.zip DA 16 2M SD08 16.05.2006

73 KB 2000012.zip DA 16 DW 16.05.2006

73 KB 2000013.zip DA 16 DW SD08 16.05.2006

76 KB 2000014.zip DA 16 DW SD10 16.05.2006

70 KB 2000015.zip DA 16 M DW 16.05.2006

78 KB 2000016.zip DA 16 M DW SD08 16.05.2006

78 KB 2000017.zip DA 16 2M DW 16.05.2006

75 KB 2000018.zip DA 16 2M DW SD08 16.05.2006

71 KB 2000019.zip DA 16 360° 16.05.2006

88 KB 2000020.zip DA 16 360° SD08 16.05.2006

93 KB 2000021.zip DA 16 360° SD10 16.05.2006

83 KB 2000022.zip DA 16 M 360° 16.05.2006

90 KB 2000023.zip DA 16 M 360° SD08 16.05.2006

91 KB 2000024.zip DA 16 2M 360° 16.05.2006

93 KB 2000025.zip DA 16 2M 360° SD08 16.05.2006

73 KB 2000026.zip DA 16 360° DW 16.05.2006

73 KB 2000027.zip DA 16 360° DW SD08 16.05.2006

76 KB 2000028.zip DA 16 360° DW SD10 16.05.2006

69 KB 2000029.zip DA 16 M 360° DW 16.05.2006

78 KB 2000030.zip DA 16 M 360° DW SD08 16.05.2006

77 KB 2000031.zip DA 16 2M 360°DW 16.05.2006

75 KB 2000032.zip DA 16 2M 360° DW SD08 16.05.2006

Zubehör

84 KB Z-DA16.zip Zubehör 16.05.2006

CAD-Daten Inventor 10

Drehantrieb

2.83 MB 2000005.zip DA 16 28.09.2007

2.54 MB 2000006.zip DA 16 SD08 16.05.2006

2.54 MB 2000007.zip DA 16 SD10 16.05.2006

2.87 MB 2000008.zip DA 16 M 16.05.2006

2.87 MB 2000009.zip DA 16 M SD08 16.05.2006

2.85 MB 2000010.zip DA 16 2M 16.05.2006

2.87 MB 2000011.zip DA 16 2M SD08 16.05.2006

3.35 MB 2000012.zip DA 16 DW 16.05.2006

3.31 MB 2000013.zip DA 16 DW SD08 16.05.2006

3.37 MB 2000014.zip DA 16 DW SD10 16.05.2006

3.64 MB 2000015.zip DA 16 M DW 16.05.2006

3.67 MB 2000016.zip DA 16 M DW SD08 16.05.2006

3.65 MB 2000017.zip DA 16 2M DW 16.05.2006

3.70 MB 2000018.zip DA 16 2M DW SD08 16.05.2006

2.36 MB 2000019.zip DA 16 360° 16.05.2006

2.41 MB 2000020.zip DA 16 360° SD08 16.05.2006

2.29 MB 2000021.zip DA 16 360° SD10 16.05.2006

2.70 MB 2000022.zip DA 16 M 360° 16.05.2006

2.74 MB 2000023.zip DA 16 M 360° SD08 16.05.2006

2.72 MB 2000024.zip DA 16 2M 360° 16.05.2006

2.72 MB 2000025.zip DA 16 2M 360° SD08 16.05.2006

3.13 MB 2000026.zip DA 16 360° DW 16.05.2006

3.22 MB 2000027.zip DA 16 360° DW SD08 16.05.2006

3.25 MB 2000028.zip DA 16 360° DW SD10 16.05.2006

3.50 MB 2000029.zip DA 16 M 360° DW 16.05.2006

3.53 MB 2000030.zip DA 16 M 360° DW SD08 16.05.2006

3.55 MB 2000031.zip DA 16 2M 360°DW 16.05.2006

3.55 MB 2000032.zip DA 16 2M 360° DW SD08 16.05.2006

Zubehör

216 KB 80600001.zip Hydr. Stossdämpfer SD08 28.09.2007

340 KB 4000054.zip Flansch (Aluminium) 16.05.2006

102 KB 4000055.zip Zylinderschraube 16.05.2006

349 KB 4000056.zip Zusatzzylinder 16.05.2006

334 KB 4000057.zip Zusatzzylinder 16.05.2006

CAD-Daten Stp

Drehantrieb

830 KB 2000005.zip DA 16 28.09.2007

846 KB 2000006.zip DA 16 SD08 16.05.2006

842 KB 2000007.zip DA 16 SD10 16.05.2006

866 KB 2000008.zip DA 16 M 16.05.2006

875 KB 2000009.zip DA 16 M SD08 16.05.2006

871 KB 2000010.zip DA 16 2M 16.05.2006

881 KB 2000011.zip DA 16 2M SD08 16.05.2006

1,013 KB 2000012.zip DA 16 DW 16.05.2006

1,015 KB 2000013.zip DA 16 DW SD08 16.05.2006

1.00 MB 2000014.zip DA 16 DW SD10 16.05.2006

1.02 MB 2000015.zip DA 16 M DW 16.05.2006

1.04 MB 2000016.zip DA 16 M DW SD08 16.05.2006

1.03 MB 2000017.zip DA 16 2M DW 16.05.2006

1.04 MB 2000018.zip DA 16 2M DW SD08 16.05.2006

845 KB 2000019.zip DA 16 360° 16.05.2006

857 KB 2000020.zip DA 16 360° SD08 16.05.2006

673 KB 2000021.zip DA 16 360° SD10 16.05.2006

888 KB 2000022.zip DA 16 M 360° 16.05.2006

900 KB 2000023.zip DA 16 M 360° SD08 16.05.2006

897 KB 2000024.zip DA 16 2M 360° 16.05.2006

897 KB 2000025.zip DA 16 2M 360° SD08 16.05.2006

1.01 MB 2000026.zip DA 16 360° DW 16.05.2006

1.00 MB 2000027.zip DA 16 360° DW SD08 16.05.2006

1.01 MB 2000028.zip DA 16 360° DW SD10 16.05.2006

1.04 MB 2000029.zip DA 16 M 360° DW 16.05.2006

1.06 MB 2000030.zip DA 16 M 360° DW SD08 16.05.2006

1.05 MB 2000031.zip DA 16 2M 360°DW 16.05.2006

1.06 MB 2000032.zip DA 16 2M 360° DW SD08 16.05.2006

Zubehör

8 KB 80600001.zip Hydr. Stossdämpfer SD08 28.09.2007

84 KB 4000054.zip Flansch (Aluminium) 16.05.2006

1 KB 4000055.zip Zylinderschraube 16.05.2006

37 KB 4000056.zip Zusatzzylinder 16.05.2006

38 KB 4000057.zip Zusatzzylinder 16.05.2006

CAD-Daten Sat

Drehantrieb

531 KB 2000005.zip DA 16 28.09.2007

547 KB 2000006.zip DA 16 SD08 16.05.2006

535 KB 2000007.zip DA 16 SD10 16.05.2006

541 KB 2000008.zip DA 16 M 16.05.2006

547 KB 2000009.zip DA 16 M SD08 16.05.2006

558 KB 2000010.zip DA 16 2M 16.05.2006

563 KB 2000011.zip DA 16 2M SD08 16.05.2006

924 KB 2000012.zip DA 16 DW 16.05.2006

925 KB 2000013.zip DA 16 DW SD08 16.05.2006

934 KB 2000014.zip DA 16 DW SD10 16.05.2006

936 KB 2000015.zip DA 16 M DW 16.05.2006

944 KB 2000016.zip DA 16 M DW SD08 16.05.2006

967 KB 2000017.zip DA 16 2M DW 16.05.2006

979 KB 2000018.zip DA 16 2M DW SD08 16.05.2006

540 KB 2000019.zip DA 16 360° 16.05.2006

549 KB 2000020.zip DA 16 360° SD08 16.05.2006

535 KB 2000021.zip DA 16 360° SD10 16.05.2006

554 KB 2000022.zip DA 16 M 360° 16.05.2006

567 KB 2000023.zip DA 16 M 360° SD08 16.05.2006

577 KB 2000024.zip DA 16 2M 360° 16.05.2006

577 KB 2000025.zip DA 16 2M 360° SD08 16.05.2006

960 KB 2000026.zip DA 16 360° DW 16.05.2006

947 KB 2000027.zip DA 16 360° DW SD08 16.05.2006

956 KB 2000028.zip DA 16 360° DW SD10 16.05.2006

952 KB 2000029.zip DA 16 M 360° DW 16.05.2006

963 KB 2000030.zip DA 16 M 360° DW SD08 16.05.2006

976 KB 2000031.zip DA 16 2M 360°DW 16.05.2006

985 KB 2000032.zip DA 16 2M 360° DW SD08 16.05.2006

Zubehör

5 KB 80600001.zip Hydr. Stossdämpfer SD08 28.09.2007

34 KB 4000054.zip Flansch (Aluminium) 16.05.2006

3 KB 4000055.zip Zylinderschraube 16.05.2006

12 KB 4000056.zip Zusatzzylinder 16.05.2006

12 KB 4000057.zip Zusatzzylinder 16.05.2006

CAD-Daten iges

Drehantrieb

845 KB 2000005.zip DA 16 28.09.2007

861 KB 2000006.zip DA 16 SD08 16.05.2006

858 KB 2000007.zip DA 16 SD10 16.05.2006

883 KB 2000008.zip DA 16 M 16.05.2006

894 KB 2000009.zip DA 16 M SD08 16.05.2006

891 KB 2000010.zip DA 16 2M 16.05.2006

901 KB 2000011.zip DA 16 2M SD08 16.05.2006

1.03 MB 2000012.zip DA 16 DW 16.05.2006

1.03 MB 2000013.zip DA 16 DW SD08 16.05.2006

1.05 MB 2000014.zip DA 16 DW SD10 16.05.2006

1.07 MB 2000015.zip DA 16 M DW 16.05.2006

1.08 MB 2000016.zip DA 16 M DW SD08 16.05.2006

1.07 MB 2000017.zip DA 16 2M DW 16.05.2006

1.09 MB 2000018.zip DA 16 2M DW SD08 16.05.2006

862 KB 2000019.zip DA 16 360° 16.05.2006

871 KB 2000020.zip DA 16 360° SD08 16.05.2006

845 KB 2000021.zip DA 16 360° SD10 16.05.2006

964 KB 2000022.zip DA 16 M 360° 16.05.2006

920 KB 2000023.zip DA 16 M 360° SD08 16.05.2006

914 KB 2000024.zip DA 16 2M 360° 16.05.2006

914 KB 2000025.zip DA 16 2M 360° SD08 16.05.2006

1.04 MB 2000026.zip DA 16 360° DW 16.05.2006

1.04 MB 2000027.zip DA 16 360° DW SD08 16.05.2006

1.05 MB 2000028.zip DA 16 360° DW SD10 16.05.2006

1.07 MB 2000029.zip DA 16 M 360° DW 16.05.2006

1.09 MB 2000030.zip DA 16 M 360° DW SD08 16.05.2006

1.08 MB 2000031.zip DA 16 2M 360°DW 16.05.2006

1.10 MB 2000032.zip DA 16 2M 360° DW SD08 16.05.2006

Zubehör

11 KB 80600001.zip Hydr. Stossdämpfer SD08 28.09.2007

91 KB 4000054.zip Flansch (Aluminium) 16.05.2006

7 KB 4000055.zip Zylinderschraube 16.05.2006

39 KB 4000056.zip Zusatzzylinder 16.05.2006

41 KB 4000057.zip Zusatzzylinder 16.05.2006